Time;durP1;ratioP1;P1;durP2;ratioP2;P2;SDS_P1;SDS_P2;PMS_P1;PMS_P2;Temp;Humidity;BMP_temperature;BMP_pressure;BME280_temperature;BME280_humidity;BME280_pressure;Samples;Min_cycle;Max_cycle;Signal;HPM_P1;HPM_P2
2022/03/10 00:01:02;;;;;;;;;;;;;;;3.88;53.11;98566.03;4410817;32;20376;-77
2022/03/10 00:03:29;;;;;;;15.77;6.32;;;;;;;3.80;53.49;98566.94;4409091;32;20292;-77
2022/03/10 00:05:56;;;;;;;;;;;;;;;3.94;53.16;98570.25;4410598;32;20430;-77
2022/03/10 00:08:23;;;;;;;17.35;6.40;;;;;;;3.75;53.47;98569.53;4410357;32;20045;-77
2022/03/10 00:10:49;;;;;;;;;;;;;;;3.74;53.44;98573.78;4410103;32;20164;-77
2022/03/10 00:13:16;;;;;;;18.92;8.18;;;;;;;3.68;53.77;98568.72;4410259;32;19981;-77
2022/03/10 00:15:43;;;;;;;;;;;;;;;4.13;52.48;98574.31;4410587;32;20102;-77
2022/03/10 00:18:10;;;;;;;17.55;6.80;;;;;;;3.47;54.24;98579.06;4410272;32;20336;-77
2022/03/10 00:20:37;;;;;;;;;;;;;;;3.62;53.76;98578.16;4410490;32;20097;-76
2022/03/10 00:23:04;;;;;;;16.02;7.50;;;;;;;3.67;53.54;98579.78;4410521;32;20405;-77
2022/03/10 00:25:32;;;;;;;;;;;;;;;3.72;53.40;98569.53;4396667;32;20150;-77
2022/03/10 00:27:59;;;;;;;;;;;;;;;3.86;53.06;98584.78;4409402;32;19981;-76
2022/03/10 00:30:26;;;;;;;19.08;7.82;;;;;;;3.91;52.75;98580.47;4409751;32;20029;-77
2022/03/10 00:32:53;;;;;;;13.77;5.90;;;;;;;3.80;53.06;98582.25;4410183;32;20134;-77
2022/03/10 00:35:24;;;;;;;18.60;6.87;;;;;;;4.03;52.56;98580.38;4410167;32;20112;-76
2022/03/10 00:37:57;;;;;;;17.27;7.90;;;;;;;3.73;53.37;98584.88;4409492;32;20440;-77
2022/03/10 00:40:26;;;;;;;19.77;6.55;;;;;;;3.64;53.41;98586.62;4409624;32;20104;-77
2022/03/10 00:42:53;;;;;;;17.37;7.45;;;;;;;4.00;52.67;98591.47;4409121;32;20087;-77
2022/03/10 00:45:20;;;;;;;;;;;;;;;4.13;52.17;98592.19;4409931;32;20150;-77
2022/03/10 00:47:50;;;;;;;19.35;8.25;;;;;;;3.95;52.77;98590.66;4410016;32;20313;-77
2022/03/10 00:50:16;;;;;;;;;;;;;;;3.75;53.43;98585.69;4410963;32;20144;-77
2022/03/10 00:52:47;;;;;;;16.62;5.82;;;;;;;4.10;52.48;98586.28;4410641;32;19988;-77
2022/03/10 00:55:16;;;;;;;14.87;6.53;;;;;;;3.73;53.36;98587.41;4411710;32;20153;-77
2022/03/10 00:57:44;;;;;;;14.60;5.85;;;;;;;3.83;53.01;98582.22;4410424;32;20169;-77
2022/03/10 01:00:11;;;;;;;17.37;6.68;;;;;;;3.74;53.28;98594.22;4409842;32;20114;-77
2022/03/10 01:02:38;;;;;;;18.17;7.25;;;;;;;3.78;53.05;98600.97;4411845;32;20432;-77
2022/03/10 01:05:08;;;;;;;20.17;7.07;;;;;;;4.08;52.45;98604.19;4411608;32;20134;-77
2022/03/10 01:07:35;;;;;;;17.27;5.90;;;;;;;3.82;52.93;98604.34;4411545;32;20137;-77
2022/03/10 01:10:04;;;;;;;17.08;7.00;;;;;;;4.01;52.47;98597.41;4411581;32;20614;-77
2022/03/10 01:12:31;;;;;;;20.15;7.72;;;;;;;3.93;52.77;98609.38;4410415;32;20129;-77
2022/03/10 01:14:58;;;;;;;23.65;7.50;;;;;;;3.75;53.13;98607.81;4411654;32;20066;-77
2022/03/10 01:17:25;;;;;;;18.02;7.30;;;;;;;3.89;52.66;98600.91;4411714;32;20161;-77
2022/03/10 01:19:52;;;;;;;18.37;7.80;;;;;;;4.17;51.98;98599.00;4411103;32;20161;-77
2022/03/10 01:22:19;;;;;;;16.92;7.25;;;;;;;3.91;52.64;98606.00;4411800;32;20118;-77
2022/03/10 01:24:46;;;;;;;;;;;;;;;3.73;52.90;98610.38;4412135;32;20389;-77
2022/03/10 01:27:15;;;;;;;17.05;7.57;;;;;;;4.10;52.29;98611.81;4411490;32;19992;-77
2022/03/10 01:29:42;;;;;;;;;;;;;;;4.05;51.87;98607.59;4411938;32;20107;-77
2022/03/10 01:32:09;;;;;;;16.75;6.22;;;;;;;4.22;51.56;98610.00;4411806;32;20029;-77
2022/03/10 01:34:36;;;;;;;;;;;;;;;4.18;51.74;98613.47;4411826;32;20106;-77
2022/03/10 01:37:03;;;;;;;18.08;8.02;;;;;;;4.08;51.89;98609.28;4411938;32;20044;-77
2022/03/10 01:39:32;;;;;;;16.87;7.43;;;;;;;4.26;51.54;98615.97;4411778;32;20062;-77
2022/03/10 01:42:00;;;;;;;18.15;6.60;;;;;;;4.37;50.97;98613.31;4411525;32;20078;-77
2022/03/10 01:44:28;;;;;;;18.25;7.80;;;;;;;4.48;50.57;98607.25;4410919;32;20146;-77
2022/03/10 01:46:55;;;;;;;19.27;8.10;;;;;;;4.27;51.32;98608.28;4411837;32;20094;-77
2022/03/10 01:49:23;;;;;;;19.70;7.68;;;;;;;4.51;50.55;98611.47;4411550;32;20108;-77
2022/03/10 01:51:51;;;;;;;15.50;7.00;;;;;;;4.24;51.07;98621.06;4410766;32;20129;-77
2022/03/10 01:54:18;;;;;;;17.80;7.75;;;;;;;4.24;51.34;98627.88;4411759;32;20338;-77
2022/03/10 01:56:45;;;;;;;24.05;7.85;;;;;;;4.21;51.18;98627.91;4411615;32;20110;-77
2022/03/10 01:59:12;;;;;;;21.90;8.27;;;;;;;4.27;51.02;98621.06;4411603;32;20097;-77
2022/03/10 02:01:39;;;;;;;18.55;7.70;;;;;;;4.32;51.16;98621.00;4409808;32;20098;-77
2022/03/10 02:04:07;;;;;;;18.73;8.13;;;;;;;4.33;50.92;98617.59;4412210;32;20112;-77
2022/03/10 02:06:34;;;;;;;;;;;;;;;4.29;51.23;98619.31;4411942;32;20161;-77
2022/03/10 02:11:46;;;;;;;17.95;6.90;;;;;;;4.20;51.34;98624.50;4411853;32;20098;-77
2022/03/10 02:19:45;;;;;;;19.08;8.23;;;;;;;4.29;51.56;98626.97;4411665;32;20094;-77
2022/03/10 02:22:14;;;;;;;19.42;6.82;;;;;;;4.22;51.57;98638.09;4412132;32;20169;-77
2022/03/10 02:24:44;;;;;;;16.90;7.43;;;;;;;4.23;51.61;98636.41;4411818;32;20138;-77
2022/03/10 02:27:20;;;;;;;21.62;8.60;;;;;;;4.53;50.73;98635.28;4410669;32;20115;-77
2022/03/10 02:29:58;;;;;;;21.90;8.93;;;;;;;4.33;51.51;98635.47;4411324;32;20106;-76
2022/03/10 02:32:25;;;;;;;20.15;8.00;;;;;;;4.37;51.08;98636.31;4411864;32;20479;-77
2022/03/10 02:34:53;;;;;;;17.92;7.80;;;;;;;4.06;51.86;98634.00;4411771;32;20160;-77
2022/03/10 02:37:20;;;;;;;16.80;6.65;;;;;;;4.13;51.70;98639.88;4411682;32;20133;-77
2022/03/10 02:39:47;;;;;;;18.08;7.60;;;;;;;4.26;51.49;98641.50;4411409;32;20082;-77
2022/03/10 02:42:14;;;;;;;17.30;8.05;;;;;;;4.15;51.75;98651.81;4411477;32;20118;-77
2022/03/10 02:44:47;;;;;;;17.15;8.40;;;;;;;3.86;52.66;98638.38;4410842;32;20372;-77
2022/03/10 02:47:15;;;;;;;15.55;6.68;;;;;;;3.67;53.53;98646.16;4411171;32;20113;-77
2022/03/10 02:49:42;;;;;;;21.65;9.20;;;;;;;4.03;52.45;98647.59;4410870;32;20127;-77
2022/03/10 02:52:09;;;;;;;22.85;8.80;;;;;;;3.79;53.29;98645.22;4410661;32;20111;-77
2022/03/10 02:54:42;;;;;;;18.30;7.30;;;;;;;3.65;53.92;98647.88;4398031;32;20158;-77
2022/03/10 02:57:09;;;;;;;17.98;6.20;;;;;;;3.95;53.31;98639.16;4409990;32;20105;-76
2022/03/10 02:59:36;;;;;;;18.92;7.32;;;;;;;3.86;53.54;98641.78;4410561;32;20161;-77
2022/03/10 03:02:04;;;;;;;19.12;8.38;;;;;;;3.62;54.13;98644.50;4410745;32;20109;-77
2022/03/10 03:04:31;;;;;;;26.70;9.75;;;;;;;3.62;54.48;98647.88;4409551;32;20113;-77
2022/03/10 03:06:59;;;;;;;22.10;9.02;;;;;;;3.73;54.17;98645.28;4409239;32;20109;-77
2022/03/10 03:09:26;;;;;;;15.63;7.15;;;;;;;3.54;54.67;98651.31;4410740;32;20522;-76
2022/03/10 03:11:52;;;;;;;;;;;;;;;3.64;54.38;98653.81;4410710;32;20151;-77
2022/03/10 03:14:23;;;;;;;18.33;7.10;;;;;;;3.68;54.46;98658.03;4410376;32;19985;-77
2022/03/10 03:16:51;;;;;;;21.85;9.20;;;;;;;3.55;54.74;98664.06;4410885;32;20153;-76
2022/03/10 03:19:18;;;;;;;20.20;8.05;;;;;;;3.77;54.38;98665.66;4409187;32;20429;-76
2022/03/10 03:21:45;;;;;;;16.85;6.53;;;;;;;3.80;54.34;98666.50;4410613;32;20542;-77
2022/03/10 03:24:12;;;;;;;;;;;;;;;3.66;54.67;98667.41;4410937;32;20412;-77
2022/03/10 03:26:39;;;;;;;16.95;6.57;;;;;;;3.54;55.10;98674.28;4410274;32;19981;-77
2022/03/10 03:29:06;;;;;;;17.65;7.12;;;;;;;3.55;55.14;98673.44;4410300;32;20177;-76
2022/03/10 03:31:33;;;;;;;;;;;;;;;3.27;55.80;98682.87;4410685;32;20691;-77
2022/03/10 03:34:00;;;;;;;16.95;6.82;;;;;;;3.47;55.43;98683.66;4410018;32;19966;-76
2022/03/10 03:36:27;;;;;;;;;;;;;;;3.32;55.94;98684.59;4397176;32;20094;-76
2022/03/10 03:38:56;;;;;;;18.10;7.40;;;;;;;3.00;56.70;98687.22;4410268;32;19969;-77
2022/03/10 03:41:23;;;;;;;18.58;7.55;;;;;;;3.14;56.47;98689.75;4409827;32;20074;-76
2022/03/10 03:43:49;;;;;;;;;;;;;;;2.79;57.59;98690.66;4410451;32;20444;-76
2022/03/10 03:46:16;;;;;;;21.48;8.85;;;;;;;2.89;57.49;98696.59;4410142;32;19989;-76
2022/03/10 03:48:44;;;;;;;22.17;8.25;;;;;;;3.11;56.86;98694.84;4409626;32;20078;-76
2022/03/10 03:51:10;;;;;;;;;;;;;;;2.79;57.77;98693.22;4410393;32;20103;-76
2022/03/10 03:53:37;;;;;;;19.27;8.25;;;;;;;2.66;58.67;98700.84;4410067;32;20021;-76
2022/03/10 03:56:04;;;;;;;;;;;;;;;2.54;59.12;98709.34;4410107;32;20201;-76
2022/03/10 03:58:31;;;;;;;19.58;6.35;;;;;;;2.61;58.57;98717.00;4410174;32;20265;-76
2022/03/10 04:00:58;;;;;;;;;;;;;;;2.90;58.41;98737.38;4409881;32;20731;-76
2022/03/10 04:03:25;;;;;;;20.50;8.17;;;;;;;2.62;58.53;98749.28;4410097;32;19988;-76
2022/03/10 04:05:52;;;;;;;20.60;7.80;;;;;;;2.49;59.41;98747.56;4410025;32;20102;-76
2022/03/10 04:08:21;;;;;;;16.70;6.75;;;;;;;2.81;58.73;98760.31;4409701;32;20104;-76
2022/03/10 04:10:48;;;;;;;20.92;8.30;;;;;;;2.87;58.44;98762.00;4409645;32;20135;-76
2022/03/10 04:13:15;;;;;;;24.12;8.82;;;;;;;2.65;58.73;98767.94;4396132;32;20161;-76
2022/03/10 04:15:42;;;;;;;;;;;;;;;3.03;57.92;98773.06;4410210;32;20085;-76
2022/03/10 04:18:10;;;;;;;19.00;8.00;;;;;;;2.92;58.71;98790.91;4410025;32;20320;-76
2022/03/10 04:20:37;;;;;;;21.60;8.02;;;;;;;2.95;57.95;98793.44;4409575;32;20134;-76
2022/03/10 04:23:04;;;;;;;18.90;8.45;;;;;;;2.79;58.51;98801.97;4409389;32;20150;-76
2022/03/10 04:25:30;;;;;;;;;;;;;;;2.83;58.04;98808.75;4409611;32;20779;-76
2022/03/10 04:27:57;;;;;;;15.77;6.40;;;;;;;2.78;58.56;98808.75;4409689;32;20021;-76
2022/03/10 04:30:24;;;;;;;;;;;;;;;2.71;58.53;98809.59;4409409;32;20116;-76
2022/03/10 04:32:51;;;;;;;14.05;6.00;;;;;;;2.33;59.82;98815.47;4409652;32;19969;-76
2022/03/10 04:35:21;;;;;;;26.27;8.00;;;;;;;2.12;60.46;98822.19;4409627;32;20147;-76
2022/03/10 04:37:48;;;;;;;;;;;;;;;2.25;60.39;98823.94;4409400;32;20100;-76
2022/03/10 04:40:15;;;;;;;14.82;6.75;;;;;;;2.09;60.55;98829.81;4409227;32;20293;-76
2022/03/10 04:42:42;;;;;;;19.95;7.50;;;;;;;1.98;60.97;98834.87;4409417;32;20607;-76
2022/03/10 04:45:09;;;;;;;;;;;;;;;2.25;60.07;98841.78;4409405;32;20098;-76
2022/03/10 04:47:36;;;;;;;18.48;7.55;;;;;;;2.03;60.85;98845.94;4409185;32;19973;-76
2022/03/10 04:50:05;;;;;;;25.17;9.40;;;;;;;2.11;60.72;98840.84;4407682;32;20077;-76
2022/03/10 04:52:32;;;;;;;22.70;9.50;;;;;;;2.05;61.01;98840.84;4395690;32;20110;-76
2022/03/10 04:54:59;;;;;;;23.33;9.65;;;;;;;2.27;60.47;98848.56;4409453;32;20452;-76
2022/03/10 04:57:27;;;;;;;22.15;9.60;;;;;;;2.54;59.59;98846.91;4409181;32;20151;-77
2022/03/10 04:59:54;;;;;;;;;;;;;;;2.86;58.43;98857.16;4409697;32;20150;-76
2022/03/10 05:02:21;;;;;;;23.08;8.63;;;;;;;2.91;58.64;98852.94;4409796;32;19991;-77
2022/03/10 05:04:48;;;;;;;23.62;9.32;;;;;;;3.06;57.98;98857.19;4409438;32;20109;-77
2022/03/10 05:07:15;;;;;;;;;;;;;;;3.03;58.47;98865.69;4410064;32;20099;-77
2022/03/10 05:09:42;;;;;;;19.10;8.73;;;;;;;3.46;57.43;98863.09;4409541;32;20410;-76
2022/03/10 05:12:09;;;;;;;;;;;;;;;3.83;54.85;98865.56;4409369;32;20108;-76
2022/03/10 05:14:36;;;;;;;18.08;6.40;;;;;;;3.40;56.88;98876.75;4409477;32;20042;-77
2022/03/10 05:17:03;;;;;;;20.62;8.30;;;;;;;3.63;55.86;98869.03;4409655;32;20093;-76
2022/03/10 05:19:33;;;;;;;26.35;9.70;;;;;;;3.74;55.18;98877.53;4409061;32;20101;-77
2022/03/10 05:22:00;;;;;;;;;;;;;;;3.82;55.36;98879.19;4409876;32;20164;-76
2022/03/10 05:24:27;;;;;;;21.98;8.98;;;;;;;3.45;58.06;98892.88;4408708;32;19981;-77
2022/03/10 05:26:54;;;;;;;;;;;;;;;3.33;60.57;98895.44;4409601;32;20121;-76
2022/03/10 05:29:21;;;;;;;21.62;8.48;;;;;;;3.57;61.34;98899.66;4409967;32;20309;-77
2022/03/10 05:31:49;;;;;;;23.52;10.18;;;;;;;3.80;61.14;98902.19;4409591;32;20091;-77
2022/03/10 05:34:17;;;;;;;21.08;8.82;;;;;;;3.38;61.97;98900.53;4409424;32;20090;-77
2022/03/10 05:36:44;;;;;;;20.70;8.20;;;;;;;3.62;62.27;98907.34;4409896;32;20093;-77
2022/03/10 05:39:10;;;;;;;;;;;;;;;3.37;63.66;98907.34;4411255;32;20104;-76
2022/03/10 05:41:40;;;;;;;23.92;8.13;;;;;;;3.41;63.65;98913.31;4411222;32;20023;-76
2022/03/10 05:44:07;;;;;;;18.08;6.18;;;;;;;3.54;63.22;98921.78;4411239;32;20089;-76
2022/03/10 05:46:34;;;;;;;;;;;;;;;4.01;61.44;98917.44;4411266;32;20137;-76
2022/03/10 05:49:01;;;;;;;19.42;8.52;;;;;;;3.68;62.32;98923.47;4411645;32;20023;-76
2022/03/10 05:51:28;;;;;;;;;;;;;;;4.01;61.37;98922.56;4411870;32;20110;-76
2022/03/10 05:53:55;;;;;;;22.62;9.13;;;;;;;3.42;63.12;98930.31;4411477;32;20039;-76
2022/03/10 05:56:21;;;;;;;;;;;;;;;3.37;63.48;98939.66;4412292;32;20090;-76
2022/03/10 05:58:48;;;;;;;42.70;17.45;;;;;;;3.33;63.84;98943.91;4412338;32;20037;-76
2022/03/10 06:01:15;;;;;;;;;;;;;;;3.52;63.12;98944.75;4411991;32;20114;-76
2022/03/10 06:03:42;;;;;;;35.00;13.30;;;;;;;3.48;62.73;98949.00;4412410;32;19973;-76
2022/03/10 06:06:11;;;;;;;;;;;;;;;3.46;62.46;98957.50;4412804;32;20156;-77
2022/03/10 06:08:38;;;;;;;35.42;13.10;;;;;;;3.12;62.89;98961.75;4410283;32;19987;-76
2022/03/10 06:11:07;;;;;;;20.70;9.00;;;;;;;3.32;61.93;98959.22;4410663;32;20154;-76
2022/03/10 06:13:34;;;;;;;15.02;5.12;;;;;;;3.60;60.77;98972.81;4410306;32;20130;-75
2022/03/10 06:16:01;;;;;;;;;;;;;;;3.58;60.01;98966.88;4410541;32;20095;-76
2022/03/10 06:18:28;;;;;;;15.27;6.53;;;;;;;3.40;59.50;98973.69;4409430;32;19976;-75
2022/03/10 06:20:55;;;;;;;;;;;;;;;3.28;60.47;98978.75;4410592;32;20109;-76
2022/03/10 06:23:21;;;;;;;14.98;5.40;;;;;;;3.40;60.16;98983.00;4409178;32;20057;-75
2022/03/10 06:25:48;;;;;;;;;;;;;;;3.22;58.99;98986.41;4410700;32;20168;-75
2022/03/10 06:28:15;;;;;;;13.23;4.95;;;;;;;3.32;58.46;98988.13;4410168;32;19973;-76
2022/03/10 06:30:42;;;;;;;;;;;;;;;2.99;59.32;98988.06;4410606;32;20137;-75
2022/03/10 06:33:10;;;;;;;10.05;4.12;;;;;;;2.66;59.25;98991.31;4410581;32;20001;-75
2022/03/10 06:35:37;;;;;;;15.05;5.22;;;;;;;2.37;59.68;98989.53;4410012;32;20149;-75
2022/03/10 06:38:04;;;;;;;;;;;;;;;2.25;59.49;98990.31;4410745;32;20205;-76
2022/03/10 06:40:31;;;;;;;10.57;4.15;;;;;;;2.63;57.50;98987.06;4410157;32;19973;-75
2022/03/10 06:42:57;;;;;;;;;;;;;;;2.72;56.92;98993.91;4410272;32;20563;-75
2022/03/10 06:45:24;;;;;;;9.65;3.28;;;;;;;2.33;57.65;98998.81;4410283;32;20056;-75
2022/03/10 06:47:51;;;;;;;8.07;2.75;;;;;;;2.19;58.38;99003.00;4409964;32;20421;-75
2022/03/10 06:50:19;;;;;;;;;;;;;;;2.46;58.26;99004.84;4410010;32;20115;-75
2022/03/10 06:52:46;;;;;;;14.73;5.18;;;;;;;2.39;58.66;99009.91;4410513;32;20288;-75
2022/03/10 06:55:16;;;;;;;9.00;3.40;;;;;;;2.36;57.84;99015.00;4410306;32;20100;-75
2022/03/10 06:57:43;;;;;;;8.13;2.92;;;;;;;2.89;55.65;99018.63;4408667;32;20078;-75
2022/03/10 07:00:10;;;;;;;;;;;;;;;2.42;55.89;99015.00;4410527;32;20123;-79
2022/03/10 07:02:38;;;;;;;8.68;2.97;;;;;;;2.38;55.60;99014.16;4409262;32;19985;-78
2022/03/10 07:05:07;;;;;;;10.25;4.00;;;;;;;2.74;54.60;99021.09;4410099;32;20082;-78
2022/03/10 07:07:34;;;;;;;7.37;2.55;;;;;;;2.50;54.91;99021.00;4410221;32;20471;-80
2022/03/10 07:10:02;;;;;;;15.45;4.60;;;;;;;2.77;54.44;99022.81;4409934;32;20166;-78
2022/03/10 07:12:29;;;;;;;11.15;3.80;;;;;;;2.99;53.77;99027.16;4409753;32;20086;-78
2022/03/10 07:14:56;;;;;;;12.63;3.25;;;;;;;3.16;52.24;99032.28;4409713;32;20141;-78
2022/03/10 07:17:23;;;;;;;;;;;;;;;3.11;52.72;99031.44;4410112;32;20141;-79
2022/03/10 07:19:52;;;;;;;14.68;4.87;;;;;;;2.85;53.46;99036.44;4410077;32;19986;-78
2022/03/10 07:22:19;;;;;;;;;;;;;;;3.18;52.64;99036.53;4410279;32;20150;-78
2022/03/10 07:24:46;;;;;;;14.00;4.80;;;;;;;2.85;53.58;99046.63;4409887;32;19969;-78
2022/03/10 07:27:12;;;;;;;;;;;;;;;3.31;51.73;99034.03;4410224;32;20489;-77
2022/03/10 07:29:39;;;;;;;12.57;4.00;;;;;;;3.21;51.85;99037.41;4410050;32;19973;-77
2022/03/10 07:32:06;;;;;;;;;;;;;;;3.60;49.87;99047.66;4410069;32;20110;-77
2022/03/10 07:34:34;;;;;;;11.48;4.22;;;;;;;3.22;51.01;99045.06;4410085;32;20317;-77
2022/03/10 07:37:01;;;;;;;14.87;5.68;;;;;;;3.01;51.37;99047.56;4410062;32;20466;-77
2022/03/10 07:39:28;;;;;;;16.33;6.53;;;;;;;2.78;53.08;99055.97;4408376;32;20122;-77
2022/03/10 07:42:00;;;;;;;10.75;3.97;;;;;;;3.02;52.18;99054.34;4409983;32;20167;-77
2022/03/10 07:44:27;;;;;;;10.45;3.58;;;;;;;3.32;50.49;99049.34;4409827;32;20086;-77
2022/03/10 07:46:54;;;;;;;;;;;;;;;2.64;52.56;99047.38;4409826;32;20094;-77
2022/03/10 07:49:21;;;;;;;8.52;3.28;;;;;;;2.51;53.96;99060.91;4409795;32;19992;-77
2022/03/10 07:51:47;;;;;;;;;;;;;;;2.90;52.16;99066.22;4410203;32;20114;-77
2022/03/10 07:54:14;;;;;;;11.52;4.35;;;;;;;2.56;53.37;99069.44;4409629;32;20354;-77
2022/03/10 07:56:41;;;;;;;;;;;;;;;2.71;52.83;99066.97;4410300;32;20149;-77
2022/03/10 07:59:08;;;;;;;14.55;4.50;;;;;;;2.80;52.24;99072.09;4407759;32;20000;-77
2022/03/10 08:01:35;;;;;;;;;;;;;;;3.04;52.29;99062.84;4409661;32;20141;-77
2022/03/10 08:04:05;;;;;;;34.53;13.77;;;;;;;3.10;51.26;99073.94;4409734;32;20028;-77
2022/03/10 08:06:32;;;;;;;17.35;6.70;;;;;;;3.25;51.37;99078.22;4409363;32;20168;-77
2022/03/10 08:09:02;;;;;;;19.42;6.55;;;;;;;3.39;50.58;99073.16;4409569;32;20519;-77
2022/03/10 08:11:29;;;;;;;14.02;5.43;;;;;;;2.53;53.66;99074.50;4396011;32;20102;-77
2022/03/10 08:13:56;;;;;;;11.95;4.20;;;;;;;3.31;51.53;99080.81;4409067;32;20149;-77
2022/03/10 08:16:22;;;;;;;;;;;;;;;3.39;51.60;99078.25;4401047;32;243002;-75
2022/03/10 08:18:50;;;;;;;13.75;4.47;;;;;;;3.75;51.21;99069.81;4409519;32;20036;-75
2022/03/10 08:21:17;;;;;;;13.62;5.53;;;;;;;3.93;50.27;99074.06;4409027;32;20475;-75
2022/03/10 08:23:44;;;;;;;10.75;3.65;;;;;;;3.78;50.17;99073.22;4409434;32;20162;-74
2022/03/10 08:26:11;;;;;;;13.70;3.50;;;;;;;4.01;49.80;99072.38;4409413;32;20137;-74
2022/03/10 08:28:38;;;;;;;;;;;;;;;3.95;49.60;99069.84;4409154;32;20101;-74
2022/03/10 08:31:05;;;;;;;13.90;4.70;;;;;;;3.92;49.55;99077.47;4409322;32;19981;-74
2022/03/10 08:33:32;;;;;;;9.10;3.47;;;;;;;3.52;51.46;99072.34;4409185;32;20125;-74
2022/03/10 08:35:59;;;;;;;15.00;5.37;;;;;;;3.27;52.10;99066.31;4408859;32;20133;-74
2022/03/10 08:38:26;;;;;;;12.50;4.45;;;;;;;3.30;53.39;99068.06;4409160;32;20114;-75
2022/03/10 08:40:53;;;;;;;;;;;;;;;3.60;53.00;99072.34;4409008;32;20106;-74
2022/03/10 08:43:22;;;;;;;14.15;4.57;;;;;;;3.60;52.32;99069.78;4408728;32;20060;-75
2022/03/10 08:45:49;;;;;;;13.32;4.93;;;;;;;4.54;49.50;99069.75;4409033;32;20465;-75
2022/03/10 08:48:18;;;;;;;14.93;5.28;;;;;;;4.44;48.78;99072.31;4409099;32;20149;-75
2022/03/10 08:50:45;;;;;;;;;;;;;;;5.12;47.22;99072.13;4408934;32;20414;-75
2022/03/10 08:53:12;;;;;;;14.00;4.62;;;;;;;4.89;48.69;99079.00;4409116;32;19981;-75
2022/03/10 08:55:39;;;;;;;;;;;;;;;4.60;49.57;99074.84;4395531;32;20457;-75
2022/03/10 08:58:06;;;;;;;8.82;3.03;;;;;;;4.27;50.58;99085.13;4409212;32;19977;-75
2022/03/10 09:00:33;;;;;;;13.77;4.43;;;;;;;4.22;51.87;99082.56;4408738;32;20158;-75
2022/03/10 09:03:01;;;;;;;15.00;5.97;;;;;;;4.64;49.47;99088.47;4408717;32;20087;-75
2022/03/10 09:05:28;;;;;;;13.05;5.90;;;;;;;4.51;50.54;99095.31;4408990;32;20101;-75
2022/03/10 09:07:55;;;;;;;14.23;6.07;;;;;;;5.35;48.36;99074.56;4408852;32;20101;-75
2022/03/10 09:10:24;;;;;;;11.18;3.75;;;;;;;6.28;45.70;99083.31;4408746;32;20167;-75
2022/03/10 09:12:51;;;;;;;14.15;5.12;;;;;;;5.93;46.60;99083.59;4410987;32;20086;-75
2022/03/10 09:15:19;;;;;;;14.65;6.15;;;;;;;5.37;48.10;99090.75;4410655;32;20079;-75
2022/03/10 09:17:46;;;;;;;13.45;4.85;;;;;;;4.86;49.90;99095.22;4410514;32;20108;-74
2022/03/10 09:20:13;;;;;;;;;;;;;;;4.85;49.32;99095.22;4410948;32;20519;-75
2022/03/10 09:22:41;;;;;;;15.50;6.03;;;;;;;5.10;49.29;99096.84;4411028;32;20029;-75
2022/03/10 09:25:09;;;;;;;16.10;6.18;;;;;;;5.01;49.73;99096.03;4409321;32;20376;-75
2022/03/10 09:27:36;;;;;;;16.10;5.37;;;;;;;4.52;50.48;99099.56;4411122;32;20147;-76
2022/03/10 09:30:04;;;;;;;14.07;5.30;;;;;;;5.56;49.60;99093.22;4410694;32;20154;-75
2022/03/10 09:32:44;;;;;;;15.98;6.68;;;;;;;5.88;46.76;99100.69;4410527;32;20165;-76
2022/03/10 09:35:13;;;;;;;11.05;4.00;;;;;;;6.11;46.52;99103.09;4410782;32;20474;-75
2022/03/10 09:37:41;;;;;;;13.80;6.60;;;;;;;5.86;47.02;99102.41;4410849;32;20108;-76
2022/03/10 09:40:09;;;;;;;15.57;5.05;;;;;;;6.02;46.35;99099.75;4410679;32;20139;-75
2022/03/10 09:42:37;;;;;;;18.37;6.97;;;;;;;5.57;48.41;99102.59;4410684;32;20153;-76
2022/03/10 09:45:09;;;;;;;27.60;8.32;;;;;;;5.79;48.38;99109.28;4409387;32;20158;-76
2022/03/10 09:47:37;;;;;;;16.27;7.05;;;;;;;6.02;46.90;99112.56;4409528;32;20095;-76
2022/03/10 09:50:07;;;;;;;14.30;5.35;;;;;;;5.87;47.00;99107.53;4410425;32;20133;-74
2022/03/10 09:52:36;;;;;;;15.23;6.65;;;;;;;6.56;45.13;99105.25;4410474;32;20086;-75
2022/03/10 09:55:05;;;;;;;14.75;5.85;;;;;;;6.62;45.07;99115.47;4409801;32;20100;-75
2022/03/10 09:57:35;;;;;;;16.20;6.60;;;;;;;6.75;44.43;99112.75;4410661;32;20158;-75
2022/03/10 10:00:02;;;;;;;15.27;6.68;;;;;;;6.47;44.38;99115.59;4410118;32;20145;-75
2022/03/10 10:02:29;;;;;;;15.38;6.47;;;;;;;7.16;42.78;99104.59;4410579;32;20396;-75
2022/03/10 10:04:57;;;;;;;16.15;6.45;;;;;;;7.72;41.11;99108.97;4410605;32;20105;-74
2022/03/10 10:07:27;;;;;;;16.58;5.68;;;;;;;8.19;40.99;99112.56;4396478;32;20161;-75
2022/03/10 10:09:56;;;;;;;14.48;6.50;;;;;;;6.61;44.25;99120.59;4410378;32;20106;-75
2022/03/10 10:12:30;;;;;;;20.88;7.15;;;;;;;6.96;43.39;99120.22;4410475;32;20137;-75
2022/03/10 10:15:00;;;;;;;15.75;6.57;;;;;;;7.74;41.95;99121.81;4410161;32;20086;-75
2022/03/10 10:17:32;;;;;;;18.20;5.87;;;;;;;5.90;45.25;99120.34;4409009;32;20098;-75
2022/03/10 10:20:19;;;;;;;15.15;6.93;;;;;;;6.77;44.07;99128.97;4409066;32;20098;-75
2022/03/10 10:22:48;;;;;;;15.90;6.85;;;;;;;5.78;45.28;99115.25;4409903;32;20457;-75
2022/03/10 10:25:23;;;;;;;16.98;6.97;;;;;;;7.65;41.84;99121.94;4396740;32;20097;-75
2022/03/10 10:27:50;;;;;;;14.52;5.35;;;;;;;7.51;42.27;99125.53;4410089;32;20102;-75
2022/03/10 10:30:17;;;;;;;13.10;4.90;;;;;;;7.29;41.63;99131.81;4410176;32;20197;-75
2022/03/10 10:32:46;;;;;;;16.75;6.35;;;;;;;6.26;44.69;99134.56;4410325;32;20082;-75
2022/03/10 10:35:23;;;;;;;19.80;6.85;;;;;;;6.56;43.43;99130.88;4409961;32;20082;-75
2022/03/10 10:37:53;;;;;;;15.80;5.93;;;;;;;7.05;42.59;99135.53;4410467;32;20502;-75
2022/03/10 10:40:22;;;;;;;15.93;5.85;;;;;;;6.96;43.46;99146.75;4409991;32;20162;-75
2022/03/10 10:42:51;;;;;;;20.52;5.45;;;;;;;6.73;43.24;99140.16;4410193;32;20145;-75
2022/03/10 10:45:38;;;;;;;16.05;6.65;;;;;;;6.64;43.80;99138.53;4410255;32;20082;-76
2022/03/10 10:48:08;;;;;;;15.85;6.68;;;;;;;6.44;43.78;99128.44;4410124;32;20149;-76
2022/03/10 10:50:41;;;;;;;16.05;6.57;;;;;;;7.30;41.68;99130.94;4409025;32;20133;-76
2022/03/10 10:53:08;;;;;;;12.70;5.72;;;;;;;7.67;40.73;99120.22;4396753;32;20172;-76
2022/03/10 10:55:38;;;;;;;16.75;6.37;;;;;;;7.97;41.33;99135.16;4408782;32;20480;-76
2022/03/10 10:58:10;;;;;;;15.13;6.87;;;;;;;8.20;39.61;99129.69;4410138;32;20452;-76
2022/03/10 11:00:42;;;;;;;14.65;5.25;;;;;;;8.16;40.56;99124.59;4410177;32;20437;-76
2022/03/10 11:03:31;;;;;;;14.45;6.70;;;;;;;7.86;41.03;99125.91;4409872;32;20100;-76
2022/03/10 11:05:59;;;;;;;17.87;7.05;;;;;;;7.18;42.29;99120.84;4410408;32;20070;-76
2022/03/10 11:08:28;;;;;;;17.75;7.03;;;;;;;6.61;43.67;99125.75;4410010;32;20178;-75
2022/03/10 11:10:55;;;;;;;18.20;6.93;;;;;;;6.91;42.82;99128.00;4409539;32;20500;-76
2022/03/10 11:13:23;;;;;;;15.35;6.18;;;;;;;6.52;44.38;99118.13;4409878;32;20145;-75
2022/03/10 11:15:53;;;;;;;20.60;7.55;;;;;;;7.04;44.43;99127.84;4409126;32;20082;-76
2022/03/10 11:18:22;;;;;;;16.35;8.13;;;;;;;6.91;43.46;99120.28;4408968;32;20094;-75
2022/03/10 11:24:33;;;;;;;;;;;;;;;6.93;42.24;99110.88;4410166;32;20136;-75
2022/03/10 11:27:12;;;;;;;13.20;5.95;;;;;;;7.01;42.82;99109.91;4409286;32;20312;-75
2022/03/10 11:29:40;;;;;;;16.17;6.93;;;;;;;6.88;43.83;99106.63;4408058;32;20165;-75
2022/03/10 11:32:10;;;;;;;16.67;7.45;;;;;;;6.03;45.01;99105.72;4408663;32;20274;-76
2022/03/10 11:34:47;;;;;;;16.87;8.10;;;;;;;5.74;45.51;99111.00;4408858;32;20145;-75
2022/03/10 11:37:37;;;;;;;16.45;7.18;;;;;;;5.93;45.71;99099.81;4409741;32;20353;-75
2022/03/10 11:40:12;;;;;;;17.17;8.05;;;;;;;6.82;44.46;99109.28;4409848;32;20167;-75
2022/03/10 11:42:40;;;;;;;19.92;8.63;;;;;;;7.44;42.19;99111.09;4396408;32;20124;-75
2022/03/10 11:45:17;;;;;;;16.58;7.72;;;;;;;8.22;40.82;99104.78;4409570;32;20143;-75
2022/03/10 11:47:45;;;;;;;20.60;8.55;;;;;;;7.33;43.04;99101.81;4408706;32;20172;-75
2022/03/10 11:50:24;;;;;;;18.30;7.35;;;;;;;7.79;41.87;99102.91;4409435;32;20097;-75
2022/03/10 11:52:57;;;;;;;14.43;6.72;;;;;;;7.45;41.31;99093.97;4408480;32;20170;-75
2022/03/10 11:55:50;;;;;;;17.10;8.00;;;;;;;7.59;41.32;99096.34;4409979;32;20173;-75
2022/03/10 11:58:34;;;;;;;17.65;6.28;;;;;;;7.29;43.24;99102.72;4409433;32;20082;-75
2022/03/10 12:01:01;;;;;;;18.02;7.80;;;;;;;7.60;42.32;99103.16;4409638;32;20140;-75
2022/03/10 12:03:30;;;;;;;18.37;8.00;;;;;;;7.77;42.10;99108.94;4409786;32;20412;-75
2022/03/10 12:05:58;;;;;;;17.20;8.23;;;;;;;7.72;41.40;99105.56;4395850;32;20098;-75